sensor_id;sensor_type;location;lat;lon;timestamp;pressure;altitude;pressure_sealevel;temperature;humidity
58367;BME280;57745;42.524;12.052;2022-12-07T00:01:24;96468.78;;;17.46;53.14
58367;BME280;57745;42.524;12.052;2022-12-07T00:03:52;96464.22;;;17.43;53.01
58367;BME280;57745;42.524;12.052;2022-12-07T00:06:18;96458.94;;;17.40;52.83
58367;BME280;57745;42.524;12.052;2022-12-07T00:08:45;96464.97;;;17.44;52.90
58367;BME280;57745;42.524;12.052;2022-12-07T00:11:13;96462.16;;;17.38;53.26
58367;BME280;57745;42.524;12.052;2022-12-07T00:13:40;96464.22;;;17.43;52.99
58367;BME280;57745;42.524;12.052;2022-12-07T00:16:08;96461.22;;;17.41;52.88
58367;BME280;57745;42.524;12.052;2022-12-07T00:18:35;96459.91;;;17.51;52.93
58367;BME280;57745;42.524;12.052;2022-12-07T00:21:06;96451.19;;;17.38;53.01
58367;BME280;57745;42.524;12.052;2022-12-07T00:23:33;96453.75;;;17.42;52.98
58367;BME280;57745;42.524;12.052;2022-12-07T00:26:09;96452.25;;;17.41;52.94
58367;BME280;57745;42.524;12.052;2022-12-07T00:28:35;96447.97;;;17.40;52.87
58367;BME280;57745;42.524;12.052;2022-12-07T00:31:03;96442.03;;;17.41;52.99
58367;BME280;57745;42.524;12.052;2022-12-07T00:33:29;96434.75;;;17.38;52.87
58367;BME280;57745;42.524;12.052;2022-12-07T00:35:56;96445.25;;;17.40;52.95
58367;BME280;57745;42.524;12.052;2022-12-07T00:38:22;96432.47;;;17.37;53.14
58367;BME280;57745;42.524;12.052;2022-12-07T00:40:57;96440.22;;;17.38;52.98
58367;BME280;57745;42.524;12.052;2022-12-07T00:43:23;96439.94;;;17.36;53.10
58367;BME280;57745;42.524;12.052;2022-12-07T00:45:48;96438.72;;;17.37;52.75
58367;BME280;57745;42.524;12.052;2022-12-07T00:48:14;96431.72;;;17.36;52.73
58367;BME280;57745;42.524;12.052;2022-12-07T00:50:39;96431.88;;;17.33;52.59
58367;BME280;57745;42.524;12.052;2022-12-07T00:53:05;96435.59;;;17.30;53.07
58367;BME280;57745;42.524;12.052;2022-12-07T00:55:34;96443.44;;;17.37;52.99
58367;BME280;57745;42.524;12.052;2022-12-07T00:58:00;96435.38;;;17.33;52.96
58367;BME280;57745;42.524;12.052;2022-12-07T01:00:25;96438.88;;;17.34;52.97
58367;BME280;57745;42.524;12.052;2022-12-07T01:02:51;96439.16;;;17.36;53.19
58367;BME280;57745;42.524;12.052;2022-12-07T01:05:17;96434.84;;;17.29;52.99
58367;BME280;57745;42.524;12.052;2022-12-07T01:07:43;96440.03;;;17.27;53.12
58367;BME280;57745;42.524;12.052;2022-12-07T01:10:08;96429.81;;;17.28;53.36
58367;BME280;57745;42.524;12.052;2022-12-07T01:12:34;96434.53;;;17.27;53.34
58367;BME280;57745;42.524;12.052;2022-12-07T01:14:59;96441.53;;;17.28;53.23
58367;BME280;57745;42.524;12.052;2022-12-07T01:17:25;96441.34;;;17.32;53.09
58367;BME280;57745;42.524;12.052;2022-12-07T01:19:50;96439.09;;;17.30;53.22
58367;BME280;57745;42.524;12.052;2022-12-07T01:22:16;96446.25;;;17.28;53.29
58367;BME280;57745;42.524;12.052;2022-12-07T01:24:41;96441.53;;;17.28;53.31
58367;BME280;57745;42.524;12.052;2022-12-07T01:27:07;96448.53;;;17.29;53.32
58367;BME280;57745;42.524;12.052;2022-12-07T01:29:32;96439.72;;;17.25;53.49
58367;BME280;57745;42.524;12.052;2022-12-07T01:31:58;96436.53;;;17.27;53.53
58367;BME280;57745;42.524;12.052;2022-12-07T01:34:23;96439.25;;;17.27;53.49
58367;BME280;57745;42.524;12.052;2022-12-07T01:36:48;96443.97;;;17.26;53.57
58367;BME280;57745;42.524;12.052;2022-12-07T01:39:14;96442.47;;;17.25;53.61
58367;BME280;57745;42.524;12.052;2022-12-07T01:41:41;96443.31;;;17.31;53.50
58367;BME280;57745;42.524;12.052;2022-12-07T01:47:07;96427.53;;;17.26;53.90
58367;BME280;57745;42.524;12.052;2022-12-07T01:49:38;96417.03;;;17.24;53.72
58367;BME280;57745;42.524;12.052;2022-12-07T01:52:15;96414.13;;;17.28;53.60
58367;BME280;57745;42.524;12.052;2022-12-07T01:54:44;96427.25;;;17.24;53.72
58367;BME280;57745;42.524;12.052;2022-12-07T01:57:11;96430.91;;;17.21;53.81
58367;BME280;57745;42.524;12.052;2022-12-07T01:59:39;96421.78;;;17.24;53.67
58367;BME280;57745;42.524;12.052;2022-12-07T02:02:09;96421.47;;;17.22;53.65
58367;BME280;57745;42.524;12.052;2022-12-07T02:04:37;96416.94;;;17.19;53.76
58367;BME280;57745;42.524;12.052;2022-12-07T02:07:04;96417.69;;;17.19;53.68
58367;BME280;57745;42.524;12.052;2022-12-07T02:09:29;96407.22;;;17.18;53.72
58367;BME280;57745;42.524;12.052;2022-12-07T02:11:55;96405.97;;;17.19;53.80
58367;BME280;57745;42.524;12.052;2022-12-07T02:14:21;96406.94;;;17.16;53.27
58367;BME280;57745;42.524;12.052;2022-12-07T02:17:03;96403.13;;;17.13;53.82
58367;BME280;57745;42.524;12.052;2022-12-07T02:25:02;96394.44;;;17.15;53.82
58367;BME280;57745;42.524;12.052;2022-12-07T02:27:46;96398.41;;;17.14;53.72
58367;BME280;57745;42.524;12.052;2022-12-07T02:30:14;96399.94;;;17.15;53.65
58367;BME280;57745;42.524;12.052;2022-12-07T02:37:39;96387.03;;;17.06;53.71
58367;BME280;57745;42.524;12.052;2022-12-07T02:42:35;96383.84;;;17.08;53.62
58367;BME280;57745;42.524;12.052;2022-12-07T02:45:02;96388.84;;;17.09;53.50
58367;BME280;57745;42.524;12.052;2022-12-07T02:47:31;96384.81;;;17.05;53.56
58367;BME280;57745;42.524;12.052;2022-12-07T02:49:59;96393.47;;;17.03;53.48
58367;BME280;57745;42.524;12.052;2022-12-07T02:52:25;96385.16;;;16.98;53.77
58367;BME280;57745;42.524;12.052;2022-12-07T02:54:50;96383.28;;;17.04;53.65
58367;BME280;57745;42.524;12.052;2022-12-07T02:57:41;96382.31;;;17.07;53.38
58367;BME280;57745;42.524;12.052;2022-12-07T03:00:11;96381.31;;;17.04;53.45
58367;BME280;57745;42.524;12.052;2022-12-07T03:03:00;96384.31;;;17.06;53.23
58367;BME280;57745;42.524;12.052;2022-12-07T03:06:03;96375.81;;;17.04;53.16
58367;BME280;57745;42.524;12.052;2022-12-07T03:11:09;96386.03;;;17.04;53.19
58367;BME280;57745;42.524;12.052;2022-12-07T03:16:17;96376.47;;;16.99;53.09
58367;BME280;57745;42.524;12.052;2022-12-07T03:21:24;96371.75;;;17.00;53.22
58367;BME280;57745;42.524;12.052;2022-12-07T03:23:55;96367.78;;;17.01;53.46
58367;BME280;57745;42.524;12.052;2022-12-07T03:26:24;96379.38;;;16.96;53.26
58367;BME280;57745;42.524;12.052;2022-12-07T03:28:56;96361.66;;;17.06;52.99
58367;BME280;57745;42.524;12.052;2022-12-07T03:31:31;96358.34;;;17.02;53.23
58367;BME280;57745;42.524;12.052;2022-12-07T03:34:03;96365.69;;;16.96;53.40
58367;BME280;57745;42.524;12.052;2022-12-07T03:36:40;96363.53;;;17.00;53.15
58367;BME280;57745;42.524;12.052;2022-12-07T03:41:40;96362.47;;;16.97;53.21
58367;BME280;57745;42.524;12.052;2022-12-07T03:44:09;96359.38;;;17.04;53.05
58367;BME280;57745;42.524;12.052;2022-12-07T03:47:02;96362.28;;;17.01;52.94
58367;BME280;57745;42.524;12.052;2022-12-07T03:49:47;96361.53;;;17.00;52.98
58367;BME280;57745;42.524;12.052;2022-12-07T03:52:39;96357.28;;;16.99;53.09
58367;BME280;57745;42.524;12.052;2022-12-07T03:55:16;96362.75;;;16.99;53.31
58367;BME280;57745;42.524;12.052;2022-12-07T03:57:45;96357.94;;;16.94;53.36
58367;BME280;57745;42.524;12.052;2022-12-07T04:00:13;96357.19;;;16.94;53.19
58367;BME280;57745;42.524;12.052;2022-12-07T04:02:39;96355.38;;;16.91;53.47
58367;BME280;57745;42.524;12.052;2022-12-07T04:05:05;96355.69;;;16.93;53.37
58367;BME280;57745;42.524;12.052;2022-12-07T04:07:31;96351.91;;;16.90;53.37
58367;BME280;57745;42.524;12.052;2022-12-07T04:10:00;96348.22;;;16.93;53.37
58367;BME280;57745;42.524;12.052;2022-12-07T04:12:25;96351.97;;;16.96;53.48
58367;BME280;57745;42.524;12.052;2022-12-07T04:14:51;96342.25;;;16.95;53.39
58367;BME280;57745;42.524;12.052;2022-12-07T04:17:16;96346.88;;;16.88;53.58
58367;BME280;57745;42.524;12.052;2022-12-07T04:19:42;96345.06;;;16.85;53.65
58367;BME280;57745;42.524;12.052;2022-12-07T04:22:07;96341.19;;;16.77;53.92
58367;BME280;57745;42.524;12.052;2022-12-07T04:24:33;96335.06;;;16.82;53.95
58367;BME280;57745;42.524;12.052;2022-12-07T04:26:59;96338.03;;;16.94;53.55
58367;BME280;57745;42.524;12.052;2022-12-07T04:29:25;96341.41;;;16.88;53.73
58367;BME280;57745;42.524;12.052;2022-12-07T04:31:51;96339.13;;;16.87;53.82
58367;BME280;57745;42.524;12.052;2022-12-07T04:34:17;96331.97;;;16.90;53.67
58367;BME280;57745;42.524;12.052;2022-12-07T04:36:44;96333.38;;;16.85;53.75
58367;BME280;57745;42.524;12.052;2022-12-07T04:39:22;96334.13;;;16.85;53.87
58367;BME280;57745;42.524;12.052;2022-12-07T04:41:48;96328.16;;;16.87;53.68
58367;BME280;57745;42.524;12.052;2022-12-07T04:44:14;96329.56;;;16.82;53.84
58367;BME280;57745;42.524;12.052;2022-12-07T04:46:40;96326.38;;;16.84;53.82
58367;BME280;57745;42.524;12.052;2022-12-07T04:49:06;96328.06;;;16.81;53.93
58367;BME280;57745;42.524;12.052;2022-12-07T04:51:32;96321.09;;;16.80;53.93
58367;BME280;57745;42.524;12.052;2022-12-07T04:53:58;96317.09;;;16.81;53.97
58367;BME280;57745;42.524;12.052;2022-12-07T04:56:24;96322.03;;;16.77;54.00
58367;BME280;57745;42.524;12.052;2022-12-07T04:58:51;96329.31;;;16.80;54.10
58367;BME280;57745;42.524;12.052;2022-12-07T05:01:18;96333.94;;;16.89;53.71
58367;BME280;57745;42.524;12.052;2022-12-07T05:03:44;96324.75;;;16.77;54.04
58367;BME280;57745;42.524;12.052;2022-12-07T05:06:10;96331.28;;;16.80;53.87
58367;BME280;57745;42.524;12.052;2022-12-07T05:08:36;96328.72;;;16.76;54.15
58367;BME280;57745;42.524;12.052;2022-12-07T05:11:03;96340.44;;;16.77;54.14
58367;BME280;57745;42.524;12.052;2022-12-07T05:13:29;96333.53;;;16.81;53.70
58367;BME280;57745;42.524;12.052;2022-12-07T05:15:55;96325.81;;;16.80;53.71
58367;BME280;57745;42.524;12.052;2022-12-07T05:18:21;96322.78;;;16.78;53.81
58367;BME280;57745;42.524;12.052;2022-12-07T05:20:46;96319.00;;;16.75;54.08
58367;BME280;57745;42.524;12.052;2022-12-07T05:23:12;96319.00;;;16.75;54.12
58367;BME280;57745;42.524;12.052;2022-12-07T05:25:38;96320.69;;;16.73;54.05
58367;BME280;57745;42.524;12.052;2022-12-07T05:28:04;96321.09;;;16.80;53.96
58367;BME280;57745;42.524;12.052;2022-12-07T05:30:30;96326.06;;;16.82;53.69
58367;BME280;57745;42.524;12.052;2022-12-07T05:32:55;96316.72;;;16.74;53.86
58367;BME280;57745;42.524;12.052;2022-12-07T05:35:21;96325.22;;;16.76;53.89
58367;BME280;57745;42.524;12.052;2022-12-07T05:37:46;96329.78;;;16.79;53.88
58367;BME280;57745;42.524;12.052;2022-12-07T05:40:13;96328.13;;;16.72;54.30
58367;BME280;57745;42.524;12.052;2022-12-07T05:42:40;96331.09;;;16.83;53.66
58367;BME280;57745;42.524;12.052;2022-12-07T05:45:06;96334.66;;;16.75;53.95
58367;BME280;57745;42.524;12.052;2022-12-07T05:47:32;96334.78;;;16.80;53.84
58367;BME280;57745;42.524;12.052;2022-12-07T05:49:58;96326.34;;;16.69;54.26
58367;BME280;57745;42.524;12.052;2022-12-07T05:52:23;96334.50;;;16.78;53.85
58367;BME280;57745;42.524;12.052;2022-12-07T05:54:49;96338.34;;;16.72;54.05
58367;BME280;57745;42.524;12.052;2022-12-07T05:57:14;96329.56;;;16.68;54.42
58367;BME280;57745;42.524;12.052;2022-12-07T05:59:40;96336.19;;;16.76;53.92
58367;BME280;57745;42.524;12.052;2022-12-07T06:02:08;96335.44;;;16.75;54.04
58367;BME280;57745;42.524;12.052;2022-12-07T06:04:37;96337.56;;;16.71;53.92
58367;BME280;57745;42.524;12.052;2022-12-07T06:07:03;96345.75;;;16.80;53.79
58367;BME280;57745;42.524;12.052;2022-12-07T06:09:29;96333.81;;;16.69;54.13
58367;BME280;57745;42.524;12.052;2022-12-07T06:11:56;96334.84;;;16.71;54.10
58367;BME280;57745;42.524;12.052;2022-12-07T06:14:40;96339.69;;;16.76;53.90
58367;BME280;57745;42.524;12.052;2022-12-07T06:17:05;96333.53;;;16.67;54.19
58367;BME280;57745;42.524;12.052;2022-12-07T06:19:31;96337.03;;;16.67;54.17
58367;BME280;57745;42.524;12.052;2022-12-07T06:21:57;96332.56;;;16.70;54.33
58367;BME280;57745;42.524;12.052;2022-12-07T06:24:22;96340.69;;;16.64;54.30
58367;BME280;57745;42.524;12.052;2022-12-07T06:26:48;96337.56;;;16.71;53.98
58367;BME280;57745;42.524;12.052;2022-12-07T06:29:14;96332.31;;;16.68;53.99
58367;BME280;57745;42.524;12.052;2022-12-07T06:31:40;96327.97;;;16.76;53.83
58367;BME280;57745;42.524;12.052;2022-12-07T06:34:10;96341.50;;;16.79;53.80
58367;BME280;57745;42.524;12.052;2022-12-07T06:36:36;96336.66;;;16.74;53.73
58367;BME280;57745;42.524;12.052;2022-12-07T06:39:02;96337.28;;;16.69;54.31
58367;BME280;57745;42.524;12.052;2022-12-07T06:41:29;96337.56;;;16.71;54.04
58367;BME280;57745;42.524;12.052;2022-12-07T06:43:54;96336.44;;;16.63;54.06
58367;BME280;57745;42.524;12.052;2022-12-07T06:46:20;96334.75;;;16.66;54.49
58367;BME280;57745;42.524;12.052;2022-12-07T06:48:45;96337.56;;;16.71;54.11
58367;BME280;57745;42.524;12.052;2022-12-07T06:51:11;96338.63;;;16.74;54.06
58367;BME280;57745;42.524;12.052;2022-12-07T06:53:37;96334.00;;;16.65;54.46
58367;BME280;57745;42.524;12.052;2022-12-07T06:56:04;96339.75;;;16.67;54.26
58367;BME280;57745;42.524;12.052;2022-12-07T06:58:30;96335.31;;;16.70;54.13
58367;BME280;57745;42.524;12.052;2022-12-07T07:00:55;96328.91;;;16.73;54.17
58367;BME280;57745;42.524;12.052;2022-12-07T07:03:21;96328.59;;;16.71;53.97
58367;BME280;57745;42.524;12.052;2022-12-07T07:05:47;96335.97;;;16.65;54.38
58367;BME280;57745;42.524;12.052;2022-12-07T07:08:13;96338.81;;;16.70;54.17
58367;BME280;57745;42.524;12.052;2022-12-07T07:10:39;96344.66;;;16.63;54.54
58367;BME280;57745;42.524;12.052;2022-12-07T07:13:04;96338.56;;;16.59;54.64
58367;BME280;57745;42.524;12.052;2022-12-07T07:15:31;96339.19;;;16.63;54.55
58367;BME280;57745;42.524;12.052;2022-12-07T07:17:57;96337.47;;;16.66;54.58
58367;BME280;57745;42.524;12.052;2022-12-07T07:20:22;96346.63;;;16.63;54.66
58367;BME280;57745;42.524;12.052;2022-12-07T07:22:49;96342.22;;;16.65;54.74
58367;BME280;57745;42.524;12.052;2022-12-07T07:25:15;96349.50;;;16.59;54.74
58367;BME280;57745;42.524;12.052;2022-12-07T07:27:40;96343.72;;;16.66;54.55
58367;BME280;57745;42.524;12.052;2022-12-07T07:30:07;96342.97;;;16.66;54.62
58367;BME280;57745;42.524;12.052;2022-12-07T07:32:33;96342.03;;;16.69;54.59
58367;BME280;57745;42.524;12.052;2022-12-07T07:34:58;96346.75;;;16.68;54.65
58367;BME280;57745;42.524;12.052;2022-12-07T07:37:24;96348.44;;;16.66;54.79
58367;BME280;57745;42.524;12.052;2022-12-07T07:39:50;96353.72;;;16.69;54.74
58367;BME280;57745;42.524;12.052;2022-12-07T07:42:15;96346.97;;;16.56;55.04
58367;BME280;57745;42.524;12.052;2022-12-07T07:44:41;96342.22;;;16.65;54.82
58367;BME280;57745;42.524;12.052;2022-12-07T07:47:06;96352.72;;;16.58;54.96
58367;BME280;57745;42.524;12.052;2022-12-07T07:49:32;96354.38;;;16.64;54.92
58367;BME280;57745;42.524;12.052;2022-12-07T07:51:58;96358.47;;;16.60;55.17
58367;BME280;57745;42.524;12.052;2022-12-07T07:54:23;96358.94;;;16.58;55.09
58367;BME280;57745;42.524;12.052;2022-12-07T07:56:49;96364.25;;;16.62;55.10
58367;BME280;57745;42.524;12.052;2022-12-07T07:59:15;96356.03;;;16.62;55.11
58367;BME280;57745;42.524;12.052;2022-12-07T08:01:40;96357.69;;;16.68;54.62
58367;BME280;57745;42.524;12.052;2022-12-07T08:04:06;96356.19;;;16.67;54.73
58367;BME280;57745;42.524;12.052;2022-12-07T08:06:31;96360.16;;;16.66;54.83
58367;BME280;57745;42.524;12.052;2022-12-07T08:08:57;96366.09;;;16.65;54.79
58367;BME280;57745;42.524;12.052;2022-12-07T08:11:23;96365.78;;;16.63;54.88
58367;BME280;57745;42.524;12.052;2022-12-07T08:13:49;96365.94;;;16.59;55.01
58367;BME280;57745;42.524;12.052;2022-12-07T08:16:15;96369.91;;;16.58;55.01
58367;BME280;57745;42.524;12.052;2022-12-07T08:18:42;96356.03;;;16.62;54.94
58367;BME280;57745;42.524;12.052;2022-12-07T08:21:11;96354.22;;;16.68;54.68
58367;BME280;57745;42.524;12.052;2022-12-07T08:23:36;96352.53;;;16.61;54.87
58367;BME280;57745;42.524;12.052;2022-12-07T08:26:04;96357.97;;;16.70;54.79
58367;BME280;57745;42.524;12.052;2022-12-07T08:28:30;96357.50;;;16.72;54.70
58367;BME280;57745;42.524;12.052;2022-12-07T08:31:17;96354.09;;;16.62;55.05
58367;BME280;57745;42.524;12.052;2022-12-07T08:33:44;96357.59;;;16.63;55.06
58367;BME280;57745;42.524;12.052;2022-12-07T08:36:11;96357.88;;;16.65;54.85
58367;BME280;57745;42.524;12.052;2022-12-07T08:38:38;96355.28;;;16.61;55.14
58367;BME280;57745;42.524;12.052;2022-12-07T08:41:05;96358.94;;;16.67;54.91
58367;BME280;57745;42.524;12.052;2022-12-07T08:43:31;96362.88;;;16.66;55.11
58367;BME280;57745;42.524;12.052;2022-12-07T08:46:10;96365.63;;;16.66;54.90
58367;BME280;57745;42.524;12.052;2022-12-07T08:48:44;96366.84;;;16.65;55.14
58367;BME280;57745;42.524;12.052;2022-12-07T08:51:11;96370.63;;;16.68;54.92
58367;BME280;57745;42.524;12.052;2022-12-07T08:53:38;96367.16;;;16.67;54.92
58367;BME280;57745;42.524;12.052;2022-12-07T08:56:04;96366.69;;;16.60;55.01
58367;BME280;57745;42.524;12.052;2022-12-07T08:58:30;96373.53;;;16.64;55.13
58367;BME280;57745;42.524;12.052;2022-12-07T09:00:56;96372.31;;;16.65;55.13
58367;BME280;57745;42.524;12.052;2022-12-07T09:03:22;96372.31;;;16.65;55.12
58367;BME280;57745;42.524;12.052;2022-12-07T09:05:47;96375.06;;;16.65;55.13
58367;BME280;57745;42.524;12.052;2022-12-07T09:08:13;96374.31;;;16.65;55.01
58367;BME280;57745;42.524;12.052;2022-12-07T09:10:39;96367.69;;;16.24;56.22
58367;BME280;57745;42.524;12.052;2022-12-07T09:13:04;96369.25;;;15.82;58.46
58367;BME280;57745;42.524;12.052;2022-12-07T09:15:30;96362.81;;;15.62;60.08
58367;BME280;57745;42.524;12.052;2022-12-07T09:17:56;96357.66;;;15.55;60.40
58367;BME280;57745;42.524;12.052;2022-12-07T09:20:22;96359.34;;;15.43;60.81
58367;BME280;57745;42.524;12.052;2022-12-07T09:22:48;96366.53;;;15.13;61.86
58367;BME280;57745;42.524;12.052;2022-12-07T09:25:14;96372.81;;;15.65;60.09
58367;BME280;57745;42.524;12.052;2022-12-07T09:27:39;96377.38;;;16.01;58.75
58367;BME280;57745;42.524;12.052;2022-12-07T09:30:06;96364.88;;;16.33;57.45
58367;BME280;57745;42.524;12.052;2022-12-07T09:32:31;96372.59;;;16.43;57.22
58367;BME280;57745;42.524;12.052;2022-12-07T09:34:57;96367.81;;;16.53;56.66
58367;BME280;57745;42.524;12.052;2022-12-07T09:37:22;96364.41;;;16.58;56.52
58367;BME280;57745;42.524;12.052;2022-12-07T09:39:48;96376.13;;;16.59;56.59
58367;BME280;57745;42.524;12.052;2022-12-07T09:42:34;96368.22;;;16.61;56.23
58367;BME280;57745;42.524;12.052;2022-12-07T09:45:01;96362.44;;;16.68;56.03
58367;BME280;57745;42.524;12.052;2022-12-07T09:47:27;96369.28;;;16.63;56.30
58367;BME280;57745;42.524;12.052;2022-12-07T09:50:00;96378.41;;;16.60;56.23
58367;BME280;57745;42.524;12.052;2022-12-07T09:52:28;96359.25;;;16.60;56.45
58367;BME280;57745;42.524;12.052;2022-12-07T09:54:54;96365.72;;;16.72;55.68
58367;BME280;57745;42.524;12.052;2022-12-07T09:57:31;96355.75;;;16.60;56.25
58367;BME280;57745;42.524;12.052;2022-12-07T10:00:20;96359.31;;;16.51;56.36
58367;BME280;57745;42.524;12.052;2022-12-07T10:02:59;96364.09;;;16.65;56.07
58367;BME280;57745;42.524;12.052;2022-12-07T10:05:38;96360.16;;;16.66;56.05
58367;BME280;57745;42.524;12.052;2022-12-07T10:08:04;96359.56;;;16.62;56.09
58367;BME280;57745;42.524;12.052;2022-12-07T10:10:34;96354.66;;;16.66;55.89
58367;BME280;57745;42.524;12.052;2022-12-07T10:15:50;96344.47;;;16.67;55.79
58367;BME280;57745;42.524;12.052;2022-12-07T10:18:21;96348.53;;;16.71;55.55
58367;BME280;57745;42.524;12.052;2022-12-07T10:21:20;96339.97;;;16.78;55.34
58367;BME280;57745;42.524;12.052;2022-12-07T10:24:00;96346.63;;;16.63;55.86
58367;BME280;57745;42.524;12.052;2022-12-07T10:26:33;96353.00;;;16.69;55.60
58367;BME280;57745;42.524;12.052;2022-12-07T10:29:02;96350.41;;;16.65;55.91
58367;BME280;57745;42.524;12.052;2022-12-07T10:31:28;96354.44;;;16.55;56.19
58367;BME280;57745;42.524;12.052;2022-12-07T10:33:58;96355.19;;;16.56;56.44
58367;BME280;57745;42.524;12.052;2022-12-07T10:36:37;96348.25;;;16.69;55.87
58367;BME280;57745;42.524;12.052;2022-12-07T10:39:12;96345.03;;;16.71;55.75
58367;BME280;57745;42.524;12.052;2022-12-07T10:42:00;96338.25;;;16.66;55.89
58367;BME280;57745;42.524;12.052;2022-12-07T10:44:31;96337.66;;;16.62;55.97
58367;BME280;57745;42.524;12.052;2022-12-07T10:52:27;96326.00;;;16.76;55.55
58367;BME280;57745;42.524;12.052;2022-12-07T10:55:02;96318.53;;;16.77;55.43
58367;BME280;57745;42.524;12.052;2022-12-07T11:00:24;96309.88;;;16.55;56.42
58367;BME280;57745;42.524;12.052;2022-12-07T11:16:52;96286.22;;;16.66;56.11
58367;BME280;57745;42.524;12.052;2022-12-07T11:22:32;96290.66;;;16.64;56.27
58367;BME280;57745;42.524;12.052;2022-12-07T11:25:19;96284.53;;;16.69;56.29
58367;BME280;57745;42.524;12.052;2022-12-07T11:31:03;96286.13;;;16.75;56.15
58367;BME280;57745;42.524;12.052;2022-12-07T11:36:40;96278.09;;;16.72;57.06
58367;BME280;57745;42.524;12.052;2022-12-07T11:39:26;96271.56;;;16.69;56.67
58367;BME280;57745;42.524;12.052;2022-12-07T11:41:55;96275.28;;;16.66;57.54
58367;BME280;57745;42.524;12.052;2022-12-07T11:44:49;96261.78;;;16.77;56.52
58367;BME280;57745;42.524;12.052;2022-12-07T11:47:41;96262.19;;;16.61;56.79
58367;BME280;57745;42.524;12.052;2022-12-07T12:06:26;96253.84;;;16.79;56.37
58367;BME280;57745;42.524;12.052;2022-12-07T12:09:04;96245.34;;;16.77;56.76
58367;BME280;57745;42.524;12.052;2022-12-07T12:17:14;96243.53;;;16.74;56.98
58367;BME280;57745;42.524;12.052;2022-12-07T12:22:39;96241.38;;;16.78;56.68
58367;BME280;57745;42.524;12.052;2022-12-07T12:25:19;96234.38;;;16.77;56.68
58367;BME280;57745;42.524;12.052;2022-12-07T12:27:47;96239.09;;;16.77;56.63
58367;BME280;57745;42.524;12.052;2022-12-07T12:30:30;96238.34;;;16.76;56.75
58367;BME280;57745;42.524;12.052;2022-12-07T12:33:49;96234.94;;;16.81;56.39
58367;BME280;57745;42.524;12.052;2022-12-07T12:47:04;96228.16;;;16.77;56.89
58367;BME280;57745;42.524;12.052;2022-12-07T12:49:41;96218.25;;;16.79;56.79
58367;BME280;57745;42.524;12.052;2022-12-07T12:57:29;96228.16;;;16.77;56.64
58367;BME280;57745;42.524;12.052;2022-12-07T13:02:26;96229.19;;;16.79;56.91
58367;BME280;57745;42.524;12.052;2022-12-07T13:21:00;96204.63;;;16.70;58.27
58367;BME280;57745;42.524;12.052;2022-12-07T13:26:18;96205.84;;;16.69;58.06
58367;BME280;57745;42.524;12.052;2022-12-07T13:28:52;96209.47;;;16.75;57.99
58367;BME280;57745;42.524;12.052;2022-12-07T13:31:33;96205.66;;;16.73;57.76
58367;BME280;57745;42.524;12.052;2022-12-07T13:34:01;96206.59;;;16.70;57.90
58367;BME280;57745;42.524;12.052;2022-12-07T13:36:31;96208.41;;;16.73;58.01
58367;BME280;57745;42.524;12.052;2022-12-07T13:39:16;96195.00;;;16.75;57.98
58367;BME280;57745;42.524;12.052;2022-12-07T13:41:43;96201.25;;;16.75;58.00
58367;BME280;57745;42.524;12.052;2022-12-07T13:44:14;96201.41;;;16.72;58.11
58367;BME280;57745;42.524;12.052;2022-12-07T13:49:20;96206.72;;;16.75;57.73
58367;BME280;57745;42.524;12.052;2022-12-07T13:51:47;96203.22;;;16.75;58.05
58367;BME280;57745;42.524;12.052;2022-12-07T13:54:13;96204.72;;;16.76;57.85
58367;BME280;57745;42.524;12.052;2022-12-07T13:56:39;96209.16;;;16.73;58.08
58367;BME280;57745;42.524;12.052;2022-12-07T13:59:21;96201.13;;;16.70;58.37
58367;BME280;57745;42.524;12.052;2022-12-07T14:01:48;96200.19;;;16.73;58.21
58367;BME280;57745;42.524;12.052;2022-12-07T14:04:40;96204.72;;;16.76;57.88
58367;BME280;57745;42.524;12.052;2022-12-07T14:10:03;96200.47;;;16.75;58.19
58367;BME280;57745;42.524;12.052;2022-12-07T14:12:30;96203.22;;;16.75;58.20
58367;BME280;57745;42.524;12.052;2022-12-07T14:14:58;96196.16;;;16.68;58.69
58367;BME280;57745;42.524;12.052;2022-12-07T14:17:26;96194.16;;;16.69;58.86
58367;BME280;57745;42.524;12.052;2022-12-07T14:19:55;96200.94;;;16.73;58.70
58367;BME280;57745;42.524;12.052;2022-12-07T14:22:36;96203.41;;;16.71;58.78
58367;BME280;57745;42.524;12.052;2022-12-07T14:25:17;96205.13;;;16.69;59.00
58367;BME280;57745;42.524;12.052;2022-12-07T14:27:58;96209.47;;;16.75;58.62
58367;BME280;57745;42.524;12.052;2022-12-07T14:30:34;96208.22;;;16.76;58.49
58367;BME280;57745;42.524;12.052;2022-12-07T14:33:02;96207.47;;;16.76;58.50
58367;BME280;57745;42.524;12.052;2022-12-07T14:35:29;96203.97;;;16.75;58.63
58367;BME280;57745;42.524;12.052;2022-12-07T14:37:54;96200.31;;;16.78;58.34
58367;BME280;57745;42.524;12.052;2022-12-07T14:40:25;96196.34;;;16.79;58.46
58367;BME280;57745;42.524;12.052;2022-12-07T14:42:55;96196.22;;;16.74;58.59
58367;BME280;57745;42.524;12.052;2022-12-07T14:45:23;96198.09;;;16.82;58.36
58367;BME280;57745;42.524;12.052;2022-12-07T14:47:48;96209.06;;;16.82;58.34
58367;BME280;57745;42.524;12.052;2022-12-07T14:50:17;96200.31;;;16.78;58.55
58367;BME280;57745;42.524;12.052;2022-12-07T14:52:47;96203.97;;;16.75;58.56
58367;BME280;57745;42.524;12.052;2022-12-07T14:55:25;96203.22;;;16.75;58.73
58367;BME280;57745;42.524;12.052;2022-12-07T14:57:51;96201.53;;;16.77;58.39
58367;BME280;57745;42.524;12.052;2022-12-07T15:00:18;96207.66;;;16.72;58.51
58367;BME280;57745;42.524;12.052;2022-12-07T15:02:45;96199.44;;;16.72;58.89
58367;BME280;57745;42.524;12.052;2022-12-07T15:05:12;96205.19;;;16.74;58.57
58367;BME280;57745;42.524;12.052;2022-12-07T15:07:38;96210.22;;;16.76;58.63
58367;BME280;57745;42.524;12.052;2022-12-07T15:10:04;96211.53;;;16.80;58.71